BIRK/RKV METAR and TAF weather

Enter ICAO airport designator
Station Type Date Time Source
BIRK METAR 2020/01/19 03:00 UTC NOAA

BIRK 190300Z 15028G39KT 6000 RA FEW025 OVC030 05/02 Q0995


Station Type Date Time Source
BIRK Decoded METAR 2020/01/19 03:00 UTC NOAA

Reykjavik, Iceland (BIRK) 64-08N 021-54W 61M
Jan 18, 2020 - 10:00 PM EST / 2020.01.19 0300 UTC
Wind: from the SSE (150 degrees) at 32 MPH (28 KT) gusting to 45 MPH (39 KT):0
Visibility: 3 mile(s):0
Sky conditions: overcast
Weather: rain
Temperature: 41 F (5 C)
Dew Point: 35 F (2 C)
Relative Humidity: 80%
Pressure (altimeter): 29.38 in. Hg (0995 hPa)
ob: BIRK 190300Z 15028G39KT 6000 RA FEW025 OVC030 05/02 Q0995
cycle: 3

Station Type Date Time Source
BIRK TAF 2020/01/19 03:06 UTC NOAA

TAF BIRK 190105Z 1903/2003 14036G50KT 9999 RA BKN020 OVC030 TX08/1908Z TN03/2003Z
TEMPO 1903/1905 7000 +RA BKN014 OVC022
BECMG 1903/1906 19028G38KT -SHRA SCT023 BKN033
TEMPO 1908/1916 20036G48KT 5000 SHRA BKN013CB
BECMG 1919/1922 21018G28KT PROB40
TEMPO 1922/2003 2500 SHRASN BKN010CB

Example: see airport list